Time;durP1;ratioP1;P1;durP2;ratioP2;P2;SDS_P1;SDS_P2;PMS_P1;PMS_P2;Temp;Humidity;BMP_temperature;BMP_pressure;BME280_temperature;BME280_humidity;BME280_pressure;Samples;Min_cycle;Max_cycle;Signal;HPM_P1;HPM_P2
2021/08/27 00:00:01;;;;;;;3.58;2.00;;;;;;;11.98;81.26;99522.86;2148870;81;21011;-85
2021/08/27 00:03:02;;;;;;;7.37;2.62;;;;;;;11.95;81.31;99524.06;2136672;82;20978;-84
2021/08/27 00:06:03;;;;;;;3.30;2.55;;;;;;;11.94;81.35;99518.91;2151149;81;21522;-85
2021/08/27 00:09:04;;;;;;;3.75;2.20;;;;;;;11.95;81.25;99527.23;2146582;81;21030;-87
2021/08/27 00:12:06;;;;;;;6.90;2.92;;;;;;;11.94;81.86;99529.07;2142419;80;21014;-86
2021/08/27 00:15:10;;;;;;;6.70;2.58;;;;;;;11.93;81.54;99533.23;2156069;81;21629;-86
2021/08/27 00:18:11;;;;;;;5.92;2.22;;;;;;;11.92;81.52;99535.07;2146818;81;21507;-87
2021/08/27 00:21:12;;;;;;;2.72;2.02;;;;;;;11.93;81.57;99540.70;2155052;81;21026;-84
2021/08/27 00:24:14;;;;;;;3.55;2.47;;;;;;;11.91;81.67;99535.25;2150861;80;20982;-85
2021/08/27 00:27:15;;;;;;;4.85;2.08;;;;;;;11.92;81.64;99537.73;2151219;81;21542;-86
2021/08/27 00:30:16;;;;;;;3.52;2.08;;;;;;;11.91;81.63;99546.73;2156198;80;20990;-85
2021/08/27 00:33:17;;;;;;;4.05;2.27;;;;;;;11.91;81.74;99544.07;2159496;81;21049;-85
2021/08/27 00:36:18;;;;;;;3.58;1.82;;;;;;;11.91;81.74;99544.07;2148013;81;21074;-87
2021/08/27 00:39:19;;;;;;;4.58;1.60;;;;;;;11.92;81.78;99549.70;2138321;81;20987;-85
2021/08/27 00:42:21;;;;;;;2.92;2.08;;;;;;;11.81;81.75;99527.57;2142629;81;21007;-86
2021/08/27 00:45:22;;;;;;;3.98;1.77;;;;;;;11.93;81.80;99552.66;2148375;81;21014;-86
2021/08/27 00:48:23;;;;;;;3.30;2.00;;;;;;;11.93;81.80;99552.66;2145200;82;20985;-85
2021/08/27 00:51:24;;;;;;;3.10;1.62;;;;;;;11.94;81.86;99551.66;2154169;81;20996;-86
2021/08/27 00:54:26;;;;;;;3.85;1.87;;;;;;;12.01;81.88;99556.53;2141050;82;20939;-84
2021/08/27 00:57:27;;;;;;;2.42;1.80;;;;;;;12.00;81.85;99550.91;2153078;82;21029;-85
2021/08/27 01:00:28;;;;;;;5.40;2.00;;;;;;;12.06;81.88;99547.99;2150740;82;21070;-85
2021/08/27 01:03:29;;;;;;;2.60;1.72;;;;;;;12.08;81.78;99556.09;2157234;82;21044;-84
2021/08/27 01:07:02;;;;;;;5.12;1.80;;;;;;;12.08;81.74;99552.63;2139883;81;21004;-86
2021/08/27 01:10:24;;;;;;;4.60;1.87;;;;;;;12.10;81.78;99556.70;2150458;81;21045;-84
2021/08/27 01:13:36;;;;;;;8.33;1.95;;;;;;;12.14;81.78;99558.50;2145523;81;21002;-85
2021/08/27 01:16:55;;;;;;;4.15;1.92;;;;;;;12.16;81.72;99563.10;2129702;82;21062;-86
2021/08/27 01:20:34;;;;;;;3.77;2.10;;;;;;;12.16;81.67;99560.95;2133875;81;21500;-86
2021/08/27 01:23:50;;;;;;;4.12;1.65;;;;;;;12.06;81.75;99554.64;2107302;81;21069;-85
2021/08/27 01:26:56;;;;;;;5.05;2.17;;;;;;;12.13;81.73;99565.33;2143183;81;20955;-87
2021/08/27 01:30:24;;;;;;;2.52;1.85;;;;;;;12.15;81.82;99560.66;2143049;81;21030;-86
2021/08/27 01:33:27;;;;;;;4.20;2.05;;;;;;;12.13;81.72;99561.34;2136625;81;21569;-85
2021/08/27 01:36:31;;;;;;;2.45;1.85;;;;;;;12.10;81.74;99563.36;2144263;82;20995;-86
2021/08/27 01:39:44;;;;;;;4.05;2.12;;;;;;;12.13;81.76;99556.02;2146082;81;21044;-86
2021/08/27 01:42:47;;;;;;;5.53;2.55;;;;;;;12.09;81.73;99557.73;2141369;81;21014;-87
2021/08/27 01:45:50;;;;;;;3.40;1.90;;;;;;;12.12;81.78;99564.52;2126200;82;21051;-86
2021/08/27 01:48:53;;;;;;;5.87;2.42;;;;;;;12.15;81.78;99561.98;2140057;82;21006;-86
2021/08/27 01:51:55;;;;;;;3.90;2.30;;;;;;;12.17;81.75;99559.96;2153939;81;20974;-87
2021/08/27 01:54:57;;;;;;;2.85;1.85;;;;;;;12.17;81.69;99562.11;2153933;81;21040;-87
2021/08/27 01:58:02;;;;;;;6.25;2.30;;;;;;;12.17;81.69;99555.97;2136331;81;21046;-85
2021/08/27 02:01:05;;;;;;;5.80;2.50;;;;;;;12.18;81.67;99549.63;2135625;82;21039;-87
2021/08/27 02:04:10;;;;;;;6.80;2.33;;;;;;;12.16;81.62;99556.45;2151079;82;20983;-85
2021/08/27 02:07:12;;;;;;;6.25;2.37;;;;;;;12.14;81.64;99551.03;2147788;80;21547;-87
2021/08/27 02:10:14;;;;;;;4.20;2.10;;;;;;;12.14;81.66;99557.17;2150174;81;21039;-85
2021/08/27 02:13:17;;;;;;;4.22;2.00;;;;;;;12.11;81.64;99549.06;2141549;82;21448;-85
2021/08/27 02:16:19;;;;;;;6.03;2.10;;;;;;;12.13;81.67;99554.69;2140080;81;21001;-86
2021/08/27 02:19:20;;;;;;;4.53;2.25;;;;;;;12.13;81.71;99549.38;2145385;81;21544;-86
2021/08/27 02:22:25;;;;;;;3.50;2.30;;;;;;;12.11;81.69;99542.42;2144083;82;21519;-87
2021/08/27 02:25:29;;;;;;;7.37;2.33;;;;;;;12.10;81.66;99544.74;2150138;82;21384;-86
2021/08/27 02:28:31;;;;;;;2.22;1.82;;;;;;;12.12;81.76;99545.89;2140362;82;21042;-85
2021/08/27 02:31:33;;;;;;;4.30;2.30;;;;;;;12.14;81.72;99546.54;2142530;81;21030;-86
2021/08/27 02:34:38;;;;;;;4.85;2.20;;;;;;;12.14;81.67;99540.41;2141152;81;21014;-87
2021/08/27 02:37:42;;;;;;;5.20;2.25;;;;;;;12.09;81.61;99541.78;2137628;81;21030;-86
2021/08/27 02:40:43;;;;;;;6.08;2.25;;;;;;;12.09;81.62;99539.63;2142141;81;20990;-86
2021/08/27 02:43:44;;;;;;;4.15;2.35;;;;;;;12.08;81.66;99540.66;2157636;81;20993;-85
2021/08/27 02:46:46;;;;;;;2.80;1.95;;;;;;;12.10;81.70;99546.58;2149460;82;21112;-86
2021/08/27 02:49:47;;;;;;;3.25;2.00;;;;;;;12.10;81.64;99535.44;2153327;82;21033;-87
2021/08/27 02:53:05;;;;;;;3.15;1.90;;;;;;;12.12;81.72;99537.92;2156768;81;20993;-86
2021/08/27 02:56:27;;;;;;;3.55;1.82;;;;;;;12.12;81.74;99539.25;2146719;82;21011;-86
2021/08/27 02:59:29;;;;;;;3.95;1.82;;;;;;;12.12;81.64;99540.58;2127638;82;20998;-85
2021/08/27 03:02:31;;;;;;;3.65;2.00;;;;;;;12.10;81.65;99544.74;2138733;81;20978;-87
2021/08/27 03:05:39;;;;;;;5.65;2.25;;;;;;;12.11;81.70;99547.73;2147749;81;20995;-87
2021/08/27 03:08:46;;;;;;;5.85;2.25;;;;;;;12.10;81.45;99547.40;2151100;81;21062;-86
2021/08/27 03:11:58;;;;;;;10.48;2.40;;;;;;;12.11;81.71;99542.93;2137976;82;21012;-85
2021/08/27 03:15:01;;;;;;;4.72;2.27;;;;;;;12.09;81.79;99541.78;2143036;80;21040;-85
2021/08/27 03:18:13;;;;;;;6.10;2.62;;;;;;;12.09;81.81;99547.09;2146553;81;21034;-85
2021/08/27 03:21:22;;;;;;;3.92;2.17;;;;;;;12.06;81.68;99548.81;2125979;81;21609;-86
2021/08/27 03:24:32;;;;;;;7.83;2.33;;;;;;;12.03;81.68;99549.19;2137015;82;21076;-87
2021/08/27 03:27:38;;;;;;;3.65;2.20;;;;;;;12.03;81.77;99559.83;2120160;82;21569;-87
2021/08/27 03:30:43;;;;;;;8.68;2.45;;;;;;;12.04;81.79;99560.64;2146961;82;21066;-86
2021/08/27 03:33:46;;;;;;;5.53;2.20;;;;;;;12.04;81.72;99562.80;2148306;82;20979;-85
2021/08/27 03:36:47;;;;;;;3.22;2.10;;;;;;;12.04;81.72;99562.80;2139175;82;21063;-87
2021/08/27 03:39:51;;;;;;;4.05;2.10;;;;;;;12.06;81.78;99564.77;2154084;81;21441;-85
2021/08/27 03:42:53;;;;;;;3.00;2.08;;;;;;;12.07;81.85;99561.08;2147037;82;21002;-86
2021/08/27 03:45:55;;;;;;;4.58;2.33;;;;;;;12.09;81.87;99562.23;2157674;81;21002;-86
2021/08/27 03:48:57;;;;;;;3.40;2.50;;;;;;;12.08;81.85;99558.76;2149069;81;20978;-86
2021/08/27 03:52:00;;;;;;;6.58;3.17;;;;;;;12.06;81.85;99559.45;2145498;82;21015;-85
2021/08/27 03:55:04;;;;;;;3.85;3.02;;;;;;;12.09;81.92;99563.56;2153248;81;21046;-85
2021/08/27 03:58:07;;;;;;;5.72;3.33;;;;;;;12.08;81.89;99561.42;2146588;82;21010;-84
2021/08/27 04:01:09;;;;;;;5.05;2.65;;;;;;;12.08;81.87;99559.27;2145830;82;21053;-87
2021/08/27 04:04:21;;;;;;;6.42;3.40;;;;;;;12.07;81.81;99565.58;2143628;82;20984;-87
2021/08/27 04:07:23;;;;;;;3.12;2.65;;;;;;;12.07;81.78;99568.23;2148817;81;21516;-85
2021/08/27 04:10:24;;;;;;;7.30;3.00;;;;;;;12.06;81.85;99570.08;2153249;81;21051;-86
2021/08/27 04:13:25;;;;;;;6.80;3.05;;;;;;;12.06;81.88;99570.59;2148389;82;21074;-84
2021/08/27 04:16:26;;;;;;;7.33;3.20;;;;;;;12.05;81.89;99564.45;2145170;82;20983;-87
2021/08/27 04:19:27;;;;;;;5.87;3.35;;;;;;;12.05;81.87;99567.12;2139817;81;20971;-85
2021/08/27 04:22:28;;;;;;;6.75;2.98;;;;;;;12.06;81.92;99570.59;2142962;81;20997;-87
2021/08/27 04:25:29;;;;;;;3.42;2.65;;;;;;;12.06;81.89;99571.92;2150929;81;21468;-85
2021/08/27 04:28:31;;;;;;;5.05;3.33;;;;;;;12.06;81.91;99574.07;2148494;81;21490;-87
2021/08/27 04:31:32;;;;;;;4.80;3.40;;;;;;;12.09;81.94;99580.34;2138367;82;21057;-85
2021/08/27 04:34:33;;;;;;;3.95;3.10;;;;;;;12.10;81.93;99585.14;2141912;82;21053;-87
2021/08/27 04:37:35;;;;;;;7.25;3.30;;;;;;;12.13;81.89;99586.60;2139892;82;21050;-87
2021/08/27 04:40:36;;;;;;;3.58;2.95;;;;;;;12.13;81.92;99592.73;2138645;82;21015;-84
2021/08/27 04:43:37;;;;;;;3.15;2.77;;;;;;;12.15;81.94;99589.39;2137786;82;21055;-85
2021/08/27 04:46:38;;;;;;;7.90;2.98;;;;;;;12.18;81.95;99593.52;2147024;82;20998;-86
2021/08/27 04:49:39;;;;;;;4.28;3.08;;;;;;;12.24;82.03;99596.73;2139816;81;21018;-85
2021/08/27 04:52:41;;;;;;;4.00;3.00;;;;;;;12.30;82.05;99596.82;2137862;82;21073;-85
2021/08/27 04:55:42;;;;;;;5.15;3.02;;;;;;;12.37;81.97;99595.53;2135971;82;21037;-85
2021/08/27 04:58:43;;;;;;;5.85;2.98;;;;;;;12.43;82.02;99598.76;2142846;81;21003;-85
2021/08/27 05:01:45;;;;;;;5.58;3.45;;;;;;;12.48;82.07;99596.35;2146420;81;21016;-86
2021/08/27 05:04:46;;;;;;;5.92;3.42;;;;;;;12.52;81.98;99601.59;2154137;82;21094;-88
2021/08/27 05:07:47;;;;;;;4.17;3.17;;;;;;;12.58;81.91;99607.17;2139318;81;21509;-84
2021/08/27 05:10:48;;;;;;;9.55;3.27;;;;;;;12.60;81.81;99603.30;2157016;82;20978;-86
2021/08/27 05:13:49;;;;;;;6.30;3.00;;;;;;;12.64;81.79;99607.72;2138531;81;21449;-84
2021/08/27 05:16:50;;;;;;;5.83;3.17;;;;;;;12.62;81.68;99609.78;2150328;81;21020;-87
2021/08/27 05:19:51;;;;;;;5.55;2.98;;;;;;;12.61;81.64;99606.27;2149446;81;21591;-86
2021/08/27 05:22:52;;;;;;;7.28;2.40;;;;;;;12.62;81.58;99603.94;2146744;81;21054;-85
2021/08/27 05:25:53;;;;;;;5.10;2.77;;;;;;;12.61;81.59;99596.14;2134121;82;21077;-87
2021/08/27 05:28:54;;;;;;;4.15;2.77;;;;;;;12.70;81.76;99599.00;2136677;82;21105;-86
2021/08/27 05:31:56;;;;;;;6.22;2.45;;;;;;;12.79;81.87;99605.81;2137862;82;20983;-85
2021/08/27 05:34:57;;;;;;;5.03;2.52;;;;;;;12.90;81.81;99605.28;2146748;82;22357;-86
2021/08/27 05:37:58;;;;;;;6.58;2.98;;;;;;;13.05;81.88;99606.50;2139311;82;20983;-86
2021/08/27 05:40:59;;;;;;;6.45;2.60;;;;;;;13.12;81.46;99610.04;2145049;82;21084;-86
2021/08/27 05:44:00;;;;;;;7.00;2.85;;;;;;;13.26;81.67;99612.28;2151061;81;21026;-85
2021/08/27 05:47:02;;;;;;;7.65;2.47;;;;;;;13.36;81.14;99614.09;2150979;82;21048;-84
2021/08/27 05:50:06;;;;;;;3.90;2.85;;;;;;;13.46;81.17;99607.08;2152616;82;20987;-85
2021/08/27 05:53:07;;;;;;;4.65;3.10;;;;;;;13.55;81.06;99617.88;2150037;81;20988;-86
2021/08/27 05:56:08;;;;;;;4.80;2.87;;;;;;;13.60;80.86;99617.27;2148111;82;21014;-84
2021/08/27 05:59:09;;;;;;;5.72;2.80;;;;;;;13.64;80.54;99616.68;2145133;82;21315;-86
2021/08/27 06:02:10;;;;;;;7.83;2.70;;;;;;;13.72;80.44;99619.69;2161226;81;20997;-86
2021/08/27 06:05:12;;;;;;;7.78;3.42;;;;;;;13.76;80.19;99620.92;2143593;82;21474;-85
2021/08/27 06:08:13;;;;;;;5.65;3.60;;;;;;;13.79;79.95;99619.70;2146803;80;21019;-87
2021/08/27 06:11:15;;;;;;;7.25;3.27;;;;;;;13.83;79.86;99616.97;2138837;81;21009;-85
2021/08/27 06:14:16;;;;;;;3.77;3.12;;;;;;;13.88;79.72;99626.02;2142318;81;20996;-87
2021/08/27 06:17:17;;;;;;;5.28;3.20;;;;;;;13.93;79.74;99617.39;2141656;81;21070;-86
2021/08/27 06:20:18;;;;;;;4.90;2.77;;;;;;;13.96;79.56;99616.17;2145507;82;21528;-87
2021/08/27 06:23:21;;;;;;;10.60;3.00;;;;;;;14.01;79.25;99619.06;2158278;81;20983;-87
2021/08/27 06:26:22;;;;;;;4.80;2.75;;;;;;;14.06;79.42;99623.28;2138740;82;21102;-86
2021/08/27 06:29:23;;;;;;;6.22;3.08;;;;;;;14.19;79.54;99622.48;2139543;82;20991;-85
2021/08/27 06:32:25;;;;;;;7.40;2.77;;;;;;;14.33;79.31;99630.33;2133903;81;21573;-85
2021/08/27 06:35:29;;;;;;;2.80;2.47;;;;;;;14.44;78.80;99630.22;2145723;82;21501;-86
2021/08/27 06:38:30;;;;;;;4.20;2.30;;;;;;;14.54;78.85;99632.53;2139261;82;21023;-86
2021/08/27 06:41:31;;;;;;;5.12;2.47;;;;;;;14.65;78.68;99634.59;2142998;81;21036;-86
2021/08/27 06:44:32;;;;;;;4.67;2.33;;;;;;;14.75;78.23;99631.02;2154334;81;22374;-85
2021/08/27 06:47:34;;;;;;;3.00;2.30;;;;;;;14.77;78.07;99635.61;2148497;81;21025;-87
2021/08/27 06:50:38;;;;;;;4.00;2.27;;;;;;;14.86;78.02;99636.73;2147913;82;21080;-86
2021/08/27 06:53:38;;;;;;;4.83;2.25;;;;;;;14.90;77.90;99643.33;2148166;81;20998;-87
2021/08/27 06:56:39;;;;;;;5.65;2.45;;;;;;;14.94;77.53;99648.03;2145185;82;21034;-85
2021/08/27 06:59:40;;;;;;;3.83;2.08;;;;;;;15.01;77.21;99642.19;2147285;82;20994;-86
2021/08/27 07:02:43;;;;;;;3.30;2.02;;;;;;;15.04;77.14;99636.13;2143435;82;21034;-86
2021/08/27 07:05:45;;;;;;;4.35;2.10;;;;;;;15.15;77.05;99642.18;2157259;81;20990;-86
2021/08/27 07:08:46;;;;;;;2.05;1.72;;;;;;;15.34;77.03;99639.95;2175140;80;21041;-88
2021/08/27 07:11:47;;;;;;;6.97;2.10;;;;;;;15.61;76.95;99636.70;2152670;80;21038;-86
2021/08/27 07:14:50;;;;;;;5.35;1.57;;;;;;;15.99;76.50;99639.13;2182194;80;21527;-87
2021/08/27 07:17:52;;;;;;;4.25;1.57;;;;;;;16.35;75.51;99634.50;2167164;80;21108;-86
2021/08/27 07:20:55;;;;;;;3.65;1.80;;;;;;;16.53;74.66;99637.27;2180611;80;21002;-88
2021/08/27 07:23:56;;;;;;;4.78;1.62;;;;;;;16.84;74.75;99632.94;2183576;80;21013;-87
2021/08/27 07:26:57;;;;;;;2.05;1.22;;;;;;;17.32;74.19;99628.25;2175679;80;21022;-86
2021/08/27 07:29:59;;;;;;;2.52;1.05;;;;;;;17.47;73.25;99635.39;2185969;79;21069;-87
2021/08/27 07:33:00;;;;;;;1.42;0.95;;;;;;;17.51;72.80;99636.28;2168764;80;20988;-86
2021/08/27 07:36:02;;;;;;;2.00;0.93;;;;;;;17.58;72.25;99642.41;2180656;80;21042;-86
2021/08/27 07:39:03;;;;;;;2.20;1.10;;;;;;;17.43;71.21;99646.28;2171312;79;21018;-87
2021/08/27 07:42:08;;;;;;;4.72;1.17;;;;;;;17.32;71.06;99652.39;2177878;80;21049;-86
2021/08/27 07:45:10;;;;;;;1.72;1.00;;;;;;;17.28;71.13;99657.87;2177084;80;21469;-86
2021/08/27 07:48:11;;;;;;;2.17;1.05;;;;;;;17.36;71.16;99652.23;2182274;80;20977;-87
2021/08/27 07:51:13;;;;;;;2.12;1.10;;;;;;;17.29;70.90;99650.15;2178904;79;21019;-88
2021/08/27 07:54:14;;;;;;;2.52;1.35;;;;;;;17.25;70.57;99656.98;2164994;80;21024;-87
2021/08/27 07:57:15;;;;;;;2.62;0.90;;;;;;;17.24;69.86;99656.69;2178633;80;20991;-87
2021/08/27 08:00:17;;;;;;;2.37;1.22;;;;;;;17.24;69.90;99652.67;2170240;79;20997;-86
2021/08/27 08:03:18;;;;;;;1.37;0.93;;;;;;;17.92;69.17;99648.52;2169369;80;21083;-87
2021/08/27 08:06:19;;;;;;;2.58;1.02;;;;;;;18.70;68.92;99652.69;2171633;79;20995;-88
2021/08/27 08:09:20;;;;;;;3.47;1.32;;;;;;;18.68;67.27;99644.84;2141246;81;21061;-86
2021/08/27 08:12:21;;;;;;;1.77;1.10;;;;;;;18.64;67.73;99647.72;2143719;81;21003;-86
2021/08/27 08:15:26;;;;;;;2.45;1.40;;;;;;;18.68;67.20;99647.53;2149064;81;21161;-86
2021/08/27 08:18:26;;;;;;;1.60;1.22;;;;;;;19.19;67.40;99648.77;2145411;82;21086;-87
2021/08/27 08:21:27;;;;;;;2.00;1.40;;;;;;;19.49;65.64;99655.88;2157917;81;21019;-85
2021/08/27 08:24:28;;;;;;;3.20;1.00;;;;;;;19.51;65.88;99649.72;2137138;81;21022;-87
2021/08/27 08:27:33;;;;;;;2.02;0.93;;;;;;;19.44;64.61;99657.11;2152212;82;20998;-88
2021/08/27 08:30:32;;;;;;;2.27;1.07;;;;;;;19.38;64.45;99650.80;2153835;81;21032;-86
2021/08/27 08:33:33;;;;;;;3.12;1.00;;;;;;;19.96;64.68;99651.73;2144236;82;21063;-85
2021/08/27 08:36:35;;;;;;;4.37;1.47;;;;;;;20.43;63.56;99654.77;2149457;81;21003;-87
2021/08/27 08:39:37;;;;;;;2.62;1.00;;;;;;;20.48;62.64;99648.94;2145931;82;21038;-87
2021/08/27 08:42:38;;;;;;;2.58;0.88;;;;;;;20.21;62.16;99651.94;2144584;82;20964;-86
2021/08/27 08:45:47;;;;;;;2.00;0.88;;;;;;;20.06;62.47;99652.48;2139770;82;20990;-87
2021/08/27 08:48:52;;;;;;;4.28;0.78;;;;;;;20.19;61.24;99653.55;2151725;81;21083;-88
2021/08/27 08:51:54;;;;;;;2.42;0.57;;;;;;;20.08;60.29;99664.65;2146764;81;21030;-86
2021/08/27 08:54:56;;;;;;;2.25;0.70;;;;;;;19.69;60.78;99659.03;2152013;81;20977;-89
2021/08/27 08:57:57;;;;;;;2.10;0.70;;;;;;;19.33;60.27;99659.29;2143559;81;21529;-86
2021/08/27 09:00:59;;;;;;;7.37;1.80;;;;;;;18.96;60.41;99659.52;2159238;81;20954;-86
2021/08/27 09:04:03;;;;;;;1.27;0.70;;;;;;;18.72;61.43;99660.79;2150477;81;21033;-87
2021/08/27 09:07:06;;;;;;;1.10;1.00;;;;;;;18.74;61.42;99668.66;2151386;81;21045;-88
2021/08/27 09:10:08;;;;;;;1.40;0.75;;;;;;;18.75;61.87;99664.42;2148964;82;20998;-87
2021/08/27 09:13:10;;;;;;;1.82;1.05;;;;;;;19.12;61.02;99662.03;2153111;81;21001;-88
2021/08/27 09:16:11;;;;;;;2.90;0.70;;;;;;;19.19;60.31;99662.20;2143535;82;21011;-86
2021/08/27 09:19:12;;;;;;;2.05;0.90;;;;;;;19.30;60.70;99664.61;2141775;81;21042;-86
2021/08/27 09:22:14;;;;;;;0.68;0.60;;;;;;;19.15;60.29;99674.50;2152638;81;21580;-86
2021/08/27 09:25:18;;;;;;;1.45;1.02;;;;;;;18.92;60.30;99671.77;2143252;82;20979;-87
2021/08/27 09:28:21;;;;;;;3.72;0.93;;;;;;;18.91;60.85;99672.30;2131905;81;21001;-87
2021/08/27 09:31:35;;;;;;;1.00;0.70;;;;;;;19.29;60.93;99663.48;2149879;81;21135;-86
2021/08/27 09:34:36;;;;;;;1.02;0.80;;;;;;;19.19;60.09;99661.40;2144945;82;21063;-87
2021/08/27 09:37:45;;;;;;;2.15;1.07;;;;;;;19.03;59.91;99669.62;2133929;82;20990;-87
2021/08/27 09:40:52;;;;;;;2.70;1.05;;;;;;;18.90;60.49;99667.18;2136589;82;20998;-87
2021/08/27 09:43:57;;;;;;;0.95;0.75;;;;;;;19.06;60.83;99665.13;2083407;82;21473;-86
2021/08/27 09:47:06;;;;;;;2.87;1.10;;;;;;;19.38;59.94;99666.95;2092224;84;21016;-86
2021/08/27 09:50:25;;;;;;;1.37;1.07;;;;;;;19.58;60.24;99663.88;2113091;81;22663;-86
2021/08/27 09:53:32;;;;;;;1.50;1.05;;;;;;;19.74;59.20;99660.17;2144995;81;21018;-87
2021/08/27 09:56:48;;;;;;;1.05;0.80;;;;;;;19.64;58.85;99666.14;2132378;82;22090;-87
2021/08/27 09:59:52;;;;;;;1.10;0.62;;;;;;;19.56;58.40;99671.36;2147038;82;21438;-87
2021/08/27 10:02:56;;;;;;;1.00;0.80;;;;;;;19.44;58.54;99669.22;2142353;82;21070;-87
2021/08/27 10:05:58;;;;;;;1.85;1.17;;;;;;;19.40;57.83;99670.73;2151282;81;21106;-87
2021/08/27 10:09:01;;;;;;;3.05;1.17;;;;;;;19.37;58.45;99669.86;2152118;80;21101;-86
2021/08/27 10:12:03;;;;;;;0.93;0.80;;;;;;;19.39;58.01;99677.17;2154145;81;21556;-87
2021/08/27 10:15:07;;;;;;;2.80;0.95;;;;;;;19.45;58.69;99678.38;2145836;81;21035;-87
2021/08/27 10:18:11;;;;;;;2.47;1.20;;;;;;;19.60;58.66;99673.06;2139577;82;21015;-86
2021/08/27 10:21:13;;;;;;;1.45;1.00;;;;;;;19.66;58.02;99670.80;2144031;82;21496;-87
2021/08/27 10:24:15;;;;;;;0.82;0.82;;;;;;;19.46;57.82;99673.31;2148455;81;21554;-87
2021/08/27 10:27:17;;;;;;;1.10;1.00;;;;;;;19.40;58.64;99668.88;2146913;82;21469;-87
2021/08/27 10:30:18;;;;;;;4.25;1.37;;;;;;;19.46;58.48;99670.63;2151913;82;21025;-87
2021/08/27 10:33:43;;;;;;;1.60;1.10;;;;;;;19.40;58.36;99671.56;2140845;81;22157;-87
2021/08/27 10:36:49;;;;;;;1.72;1.45;;;;;;;19.46;58.27;99676.53;2149919;80;21045;-87
2021/08/27 10:39:50;;;;;;;1.77;1.17;;;;;;;19.47;58.20;99674.13;2145524;81;20966;-86
2021/08/27 10:42:55;;;;;;;1.00;1.00;;;;;;;19.29;58.08;99662.98;2145135;82;21018;-86
2021/08/27 10:45:57;;;;;;;2.58;1.30;;;;;;;19.24;58.43;99662.33;2144892;82;21087;-86
2021/08/27 10:48:58;;;;;;;2.15;1.22;;;;;;;19.24;58.15;99664.20;2145997;82;21006;-85
2021/08/27 10:52:05;;;;;;;2.50;1.30;;;;;;;19.25;58.00;99662.61;2144324;81;21320;-87
2021/08/27 10:55:10;;;;;;;1.17;1.07;;;;;;;19.32;57.77;99661.70;2137250;81;21531;-87
2021/08/27 10:58:13;;;;;;;3.65;1.25;;;;;;;19.54;58.08;99656.00;2154871;81;20986;-86
2021/08/27 11:01:32;;;;;;;1.60;1.50;;;;;;;19.80;58.14;99657.36;2141678;82;21003;-88
2021/08/27 11:04:43;;;;;;;1.37;1.27;;;;;;;20.12;57.90;99650.17;2150036;81;21029;-85
2021/08/27 11:07:45;;;;;;;1.40;1.05;;;;;;;20.51;57.08;99649.80;2141124;81;21489;-87
2021/08/27 11:11:12;;;;;;;1.70;0.95;;;;;;;20.60;56.23;99648.36;2159500;81;21068;-88
2021/08/27 11:14:16;;;;;;;2.33;1.10;;;;;;;20.11;55.60;99642.63;2158549;81;21041;-86
2021/08/27 11:17:18;;;;;;;0.78;0.78;;;;;;;20.01;55.82;99647.80;2126297;82;20979;-86
2021/08/27 11:20:25;;;;;;;0.90;0.90;;;;;;;19.78;55.10;99647.89;2120381;82;21083;-85
2021/08/27 11:23:28;;;;;;;2.83;1.10;;;;;;;19.51;55.28;99645.68;2140632;82;20986;-88
2021/08/27 11:26:58;;;;;;;3.05;1.15;;;;;;;19.75;56.18;99643.80;2156807;81;21465;-88
2021/08/27 11:30:32;;;;;;;2.37;1.00;;;;;;;19.75;54.55;99637.60;2143098;82;21038;-87
2021/08/27 11:33:50;;;;;;;1.05;0.95;;;;;;;19.48;55.49;99630.02;2151758;82;21073;-86
2021/08/27 11:36:52;;;;;;;1.85;0.90;;;;;;;19.44;56.27;99631.02;2140548;81;20999;-86
2021/08/27 11:39:53;;;;;;;1.22;1.12;;;;;;;19.58;55.67;99637.50;2142744;81;21585;-87
2021/08/27 11:42:55;;;;;;;3.08;1.27;;;;;;;19.43;55.67;99636.66;2142614;81;21030;-88
2021/08/27 11:46:00;;;;;;;1.05;1.00;;;;;;;19.19;56.26;99638.00;2150338;81;21001;-86
2021/08/27 11:49:19;;;;;;;1.27;1.15;;;;;;;19.06;55.96;99639.58;2144204;80;21015;-88
2021/08/27 11:52:27;;;;;;;1.70;1.25;;;;;;;18.91;56.12;99636.02;2149253;81;20984;-87
2021/08/27 11:55:30;;;;;;;2.52;1.17;;;;;;;18.78;56.65;99642.45;2141398;82;20974;-86
2021/08/27 11:58:43;;;;;;;2.10;1.10;;;;;;;18.84;56.97;99639.86;2144745;81;21038;-86
2021/08/27 12:01:45;;;;;;;1.30;0.90;;;;;;;18.90;57.02;99641.64;2127260;82;20980;-87
2021/08/27 12:04:56;;;;;;;1.35;1.10;;;;;;;18.96;56.53;99633.98;2148638;81;20957;-86
2021/08/27 12:08:01;;;;;;;0.70;0.70;;;;;;;18.94;56.82;99640.11;2153761;81;21062;-87
2021/08/27 12:11:03;;;;;;;1.55;0.93;;;;;;;18.97;56.85;99634.27;2143418;81;22948;-86
2021/08/27 12:14:05;;;;;;;1.17;1.07;;;;;;;18.97;56.66;99638.30;2161792;81;21548;-87
2021/08/27 12:17:07;;;;;;;0.95;0.78;;;;;;;19.00;56.52;99644.55;2151158;81;21040;-85
2021/08/27 12:20:10;;;;;;;0.62;0.62;;;;;;;18.87;56.63;99642.92;2137550;82;20983;-87
2021/08/27 12:23:23;;;;;;;1.07;0.72;;;;;;;18.81;57.10;99637.95;2138641;82;21457;-87
2021/08/27 12:26:25;;;;;;;1.10;0.90;;;;;;;18.83;57.09;99638.23;2142680;81;20988;-86
2021/08/27 12:29:26;;;;;;;1.30;0.90;;;;;;;18.82;57.62;99644.14;2141480;81;21517;-87
2021/08/27 12:32:27;;;;;;;0.80;0.80;;;;;;;18.84;57.83;99640.70;2129899;82;21004;-87
2021/08/27 12:35:32;;;;;;;0.72;0.72;;;;;;;18.89;57.73;99635.95;2141532;81;20985;-88
2021/08/27 12:38:34;;;;;;;0.95;0.85;;;;;;;18.99;57.58;99642.92;2143037;82;21090;-86
2021/08/27 12:41:37;;;;;;;3.05;1.05;;;;;;;19.01;57.75;99647.55;2157776;81;21081;-88
2021/08/27 12:45:01;;;;;;;1.15;1.00;;;;;;;19.04;57.96;99647.08;2103214;83;20971;-86
2021/08/27 12:48:05;;;;;;;1.25;1.15;;;;;;;19.09;58.04;99649.05;2151881;81;21050;-86
2021/08/27 12:51:12;;;;;;;0.78;0.75;;;;;;;19.13;57.94;99645.67;2151932;81;20983;-87
2021/08/27 12:54:15;;;;;;;1.22;1.00;;;;;;;19.19;57.88;99647.41;2146898;81;21009;-87
2021/08/27 12:57:17;;;;;;;1.07;0.85;;;;;;;19.33;57.85;99650.69;2142209;81;21007;-87
2021/08/27 13:00:21;;;;;;;0.70;0.70;;;;;;;19.39;57.88;99648.39;2151437;82;21012;-87
2021/08/27 13:03:22;;;;;;;0.70;0.70;;;;;;;19.39;57.71;99652.42;2146149;81;21109;-86
2021/08/27 13:06:45;;;;;;;0.95;0.80;;;;;;;19.39;56.80;99647.58;2137541;82;21042;-87
2021/08/27 13:09:47;;;;;;;2.02;0.80;;;;;;;19.38;56.65;99649.99;2154533;79;21571;-87
2021/08/27 13:12:48;;;;;;;0.80;0.80;;;;;;;19.35;56.12;99646.42;2147535;81;21524;-87
2021/08/27 13:16:09;;;;;;;1.90;0.90;;;;;;;19.37;56.44;99651.02;2147615;81;21005;-88
2021/08/27 13:19:10;;;;;;;2.37;1.05;;;;;;;19.43;56.61;99643.37;2140873;81;21008;-87
2021/08/27 13:22:22;;;;;;;1.10;0.98;;;;;;;19.43;55.60;99652.27;2144822;81;21543;-85
2021/08/27 13:25:30;;;;;;;2.77;1.00;;;;;;;19.38;55.81;99657.53;2148114;81;21040;-87
2021/08/27 13:28:31;;;;;;;0.98;0.85;;;;;;;19.41;55.95;99657.05;2142265;81;21576;-87
2021/08/27 13:31:34;;;;;;;1.35;0.80;;;;;;;19.33;56.19;99653.91;2164090;81;21001;-86
2021/08/27 13:34:35;;;;;;;1.22;1.10;;;;;;;19.28;56.25;99656.48;2155282;81;21050;-87
2021/08/27 13:37:36;;;;;;;1.52;1.15;;;;;;;19.27;55.76;99651.63;2151318;81;21033;-86
2021/08/27 13:40:38;;;;;;;0.98;0.90;;;;;;;19.30;55.95;99654.38;2144286;81;21552;-87
2021/08/27 13:43:40;;;;;;;1.45;0.98;;;;;;;19.25;55.92;99655.89;2150342;81;20983;-86
2021/08/27 13:46:41;;;;;;;1.87;1.00;;;;;;;19.23;55.86;99656.67;2148513;81;21516;-88
2021/08/27 13:49:42;;;;;;;1.42;1.20;;;;;;;19.22;55.42;99661.73;2140383;81;20983;-86
2021/08/27 13:52:46;;;;;;;1.22;1.02;;;;;;;19.17;55.79;99655.42;2145145;81;21015;-87
2021/08/27 13:55:47;;;;;;;4.45;0.88;;;;;;;19.24;56.13;99662.33;2143993;81;20998;-87
2021/08/27 13:58:49;;;;;;;1.62;0.88;;;;;;;19.19;55.47;99662.20;2144301;81;21044;-86
2021/08/27 14:01:50;;;;;;;0.93;0.93;;;;;;;19.08;55.56;99670.28;2136959;81;21047;-86
2021/08/27 14:04:51;;;;;;;1.80;1.02;;;;;;;19.03;55.85;99666.94;2158385;81;21016;-86
2021/08/27 14:07:52;;;;;;;1.57;1.00;;;;;;;18.94;56.50;99668.34;2144633;81;21470;-87
2021/08/27 14:10:53;;;;;;;1.00;1.00;;;;;;;19.00;55.94;99670.09;2117889;82;20964;-87
2021/08/27 14:13:55;;;;;;;1.27;0.90;;;;;;;19.06;56.40;99669.16;2134489;82;21458;-88
2021/08/27 14:16:56;;;;;;;0.98;0.93;;;;;;;19.08;55.80;99672.97;2130707;82;21464;-88
2021/08/27 14:19:57;;;;;;;1.37;1.00;;;;;;;19.11;56.02;99660.40;2129124;82;20959;-87
2021/08/27 14:22:59;;;;;;;1.52;1.07;;;;;;;19.14;56.24;99670.16;2130978;82;21007;-87
2021/08/27 14:26:01;;;;;;;2.77;1.15;;;;;;;19.07;55.89;99668.13;2130880;82;20967;-87